Portada
METAR-TAF:

METAR-TAF

Aeroports :

Rockhampton, Austràlia

latitud: 23-23S, longitud: 150-28E, altitud: 10 m

Observació

L'informe es va fer fa 37 minuts, a les 17:00 UTC
Vent 6 kt del Est/Sud-Est
Temperatura 18°C
Humitat 73%
Pressió 1017 hPa
Visibilitat 10 km o més

METAR: YBRK 131700Z AUTO 12006KT 9999 // NCD 18/13 Q1017

Hora: 03:37 (17:37 UTC)

Pronòstic

L'informe es va fer fa 6 hores i 17 minuts, a les 11:20 UTC
Pronòstic vàlid del 13 a les 12 UTC al 14 a les 12 UTC
Vent 5 kt del Sud-Est
Visibilitat 10 km o més
sense núvols per sota de 1500 mi sense presència de cumulonimbus.
A partir de les 14 a les 0000 UTC
Vent 8 kt del Est
Visibilitat 10 km o més
Escasses núvols a una alçada de 5000 ft
A partir de les 14 a les 1100 UTC
Vent 5 kt del Sud-Est
Visibilitat 10 km o més
sense núvols per sota de 1500 mi sense presència de cumulonimbus.

TAF: YBRK 131120Z 1312/1412 14005KT CAVOK FM140000 10008KT 9999 FEW050 FM141100 14005KT CAVOK

Observacions i pronòstics meteorològics de més de 4000 aeroports (METAR i TAF).

Les estacions disponibles són els punts grocs i vermells al mapa.

Posi el ratolí al punt desitjat per veure el nom de l'estació.

Feu clic per veure les observacions i els pronòstics meteorològics.

Per canviar el mapa: feu clic els botons verds amb una creu de color negre per apropar; al botó verd amb un guió per allunyar la imatge; o en les fletxes verdes per a mapes adjacents.


METAR-TAF: